x

West Moresby (46208) Wave Buoy

9:00pm - Sun 7th Feb 2016 All times are PST. -8 hours from GMT.

  • Sig Wave height 18.7ft
  • Peak Period 17s
  • Wind
    22mph, 31mph gusts
  • Sea Temp 48°f
  • Air Temp 49°f
  • Sea Pressure 1017.8mb
  • West Moresby
  • West Moresby

More Historic Weather Station data

Upgrade to MSW Pro to gain access to the past 30 days of data for over 8000 Wavebouys and Weather Stations around the globe.

Join Pro

Comparision Forecast

View Surf forecast
   
Sun 02/07 9:00pm 18.5ft 17s 22 31 mph 1017.8mb 48f 49f
8:00pm 17.5ft 17s 25 31 mph 1017.5mb 48f 49f
7:00pm 15ft 17s 11 16 mph 1017.7mb 48f 47f
6:00pm 15.5ft 11s 9 13 mph 1018.1mb 48f 47f
5:00pm 14ft 10s 16 20 mph 1018.4mb 48f 46f
4:00pm 12.5ft 10s 11 13 mph 1019.5mb 48f 46f
3:00pm 14ft 11s 9 13 mph 1019.4mb 48f 47f
2:00pm 13.5ft 11s 4 9 mph 1019.8mb 48f 47f
1:00pm 15ft 10s 4 9 mph 1019.5mb 48f 48f
12:00pm 16.5ft 11s 4 7 mph 1019.3mb 48f 48f
11:00am 15.5ft 11s 7 9 mph 1018.9mb 48f 48f
10:00am 15.5ft 11s 7 11 mph 1018.6mb 48f 48f
9:00am 16ft 11s 7 9 mph 1017.5mb 48f 48f
8:00am 15.5ft 10s 7 11 mph 1015.8mb 48f 48f
7:00am 15ft 11s 13 18 mph 1016mb 48f 48f
6:00am 17.5ft 11s 16 20 mph 1015.3mb 48f 48f
5:00am 18ft 10s 22 27 mph 1015mb 48f 48f
4:00am 18.5ft 10s 29 36 mph 1014.6mb 48f 48f
3:00am 18.5ft 10s 31 40 mph 1014.6mb 48f 47f
2:00am 18ft 10s 34 43 mph 1014.7mb 48f 47f
1:00am 16.5ft 8s 38 49 mph 1014.1mb 48f 47f
12:00am 14.5ft 10s 38 51 mph 1014.3mb 48f 47f
Sat 02/06 11:00pm 13.5ft 8s 36 45 mph 1016.1mb 48f 47f
10:00pm 12.5ft 12s 36 45 mph 1016.5mb 48f 47f
9:00pm 12.5ft 12s 34 43 mph 1018.3mb 48f 47f
8:00pm 12.5ft 13s 29 38 mph 1019.2mb 48f 47f
7:00pm 11.5ft 13s 27 36 mph 1020.6mb 48f 48f
6:00pm 12ft 13s 25 31 mph 1020.9mb 48f 47f
5:00pm 12ft 13s 22 27 mph 1021.6mb 48f 46f
4:00pm 13ft 13s 25 31 mph 1022mb 48f 47f
3:00pm 14ft 14s 22 27 mph 1022.1mb 48f 46f
2:00pm 14.5ft 13s 20 25 mph 1023mb 48f 46f
1:00pm 15.5ft 12s 18 22 mph 1023.2mb 48f 45f
12:00pm 16.5ft 12s 13 18 mph 1023.7mb 48f 45f
11:00am 15.5ft 12s 7 11 mph 1023.2mb 48f 45f
10:00am 15.5ft 13s 9 13 mph 1022.8mb 48f 45f
9:00am 14ft 12s 9 13 mph 1021.9mb 48f 45f
8:00am 15ft 13s 9 13 mph 1021.9mb 48f 44f
7:00am 15ft 10s 9 13 mph 1020.5mb 48f 44f
6:00am 14ft 13s 11 18 mph 1020.6mb 48f 43f
5:00am 14ft 13s 20 25 mph 1019.8mb 48f 43f
4:00am 15.5ft 13s 18 25 mph 1018.8mb 48f 44f
3:00am 15.5ft 13s 18 25 mph 1017.5mb 48f 45f
2:00am 16.5ft 13s 20 25 mph 1016mb 48f 46f
1:00am 15.5ft 14s 20 27 mph 1014.6mb 48f 45f
12:00am 17.5ft 12s 25 31 mph 1012.8mb 48f 45f
Fri 02/05 11:00pm 18ft 13s 29 38 mph 1011.3mb 48f 44f
10:00pm 15.5ft 12s 27 34 mph 1009.6mb 48f 44f
9:00pm 17.5ft 12s 25 31 mph 1007.8mb 48f 44f
8:00pm 17.5ft 13s 18 25 mph 1006.8mb 48f 43f
7:00pm 17ft 12s 18 25 mph 1006.4mb 48f 44f
6:00pm 18ft 12s 18 25 mph 1006mb 48f 45f
5:00pm 17.5ft 12s 20 27 mph 1005.2mb 48f 45f
4:00pm 18ft 12s 20 31 mph 1004mb 48f 45f
3:00pm 16.5ft 11s 13 20 mph 1003.6mb 48f 45f
2:00pm 17ft 12s 16 20 mph 1003mb 48f 45f
1:00pm 18ft 12s 20 31 mph 1002.4mb 48f 44f
12:00pm 17ft 12s 13 18 mph 1002mb 48f 45f
11:00am 19ft 14s 13 18 mph 1001.8mb 48f 46f
10:00am 18ft 12s 11 16 mph 1001.7mb 48f 45f
9:00am 21ft 12s 13 20 mph 1000.7mb 48f 45f
8:00am 20.5ft 14s 9 13 mph 1000.3mb 48f 46f
7:00am 23ft 11s 9 13 mph 1000.5mb 48f 45f
6:00am 19.5ft 11s 9 13 mph 1000mb 48f 45f
5:00am 23ft 13s 9 13 mph 999.7mb 48f 46f
4:00am 22ft 11s 9 16 mph 999.6mb 48f 47f
3:00am 22.5ft 13s 7 13 mph 999.3mb 48f 47f
2:00am 22.5ft 13s 11 18 mph 997.8mb 48f 46f
1:00am 23.5ft 12s 11 18 mph 997mb 48f 46f
12:00am 22.5ft 14s 16 22 mph 996.2mb 48f 46f
Thu 02/04 11:00pm 22.5ft 11s 16 25 mph 994.9mb 48f 47f
10:00pm 21ft 10s 20 27 mph 994.5mb 48f 49f
9:00pm 22.5ft 14s 22 29 mph 993.8mb 48f 49f
8:00pm 22.5ft 12s 27 36 mph 994.1mb 48f 49f
7:00pm 21.5ft 15s 31 40 mph 994.1mb 48f 49f
6:00pm 20ft 11s 31 43 mph 994.8mb 48f 49f
5:00pm 21.5ft 14s 34 45 mph 995.5mb 48f 49f
4:00pm 22ft 11s 36 45 mph 996.6mb 48f 49f
3:00pm 23.5ft 12s 34 45 mph 998.1mb 48f 49f
2:00pm 24.5ft 14s 36 43 mph 999.3mb 48f 49f
1:00pm 23.5ft 14s 36 49 mph 1000mb 48f 49f
12:00pm 25ft 14s 36 45 mph 1000.6mb 48f 49f
11:00am 24ft 14s 36 47 mph 1000.7mb 48f 49f
10:00am 23.5ft 16s 34 40 mph 1001.1mb 48f 49f
9:00am 21.5ft 15s 36 45 mph 1001.3mb 48f 48f
8:00am 22.5ft 16s 34 40 mph 1001.7mb 48f 49f
7:00am 19ft 16s 34 40 mph 1002.4mb 48f 48f